Date,TemperatureHighF,TemperatureAvgF,TemperatureLowF,DewpointHighF,DewpointAvgF,DewpointLowF,HumidityHigh,HumidityAvg,HumidityLow,PressureMaxIn,PressureMinIn,WindSpeedMaxMPH,WindSpeedAvgMPH,GustSpeedMaxMPH,PrecipitationSumIn
2013-3-1,67,64,60,57,54,48,78,69,62,30.01,29.92,12,4,12,0.00
2013-3-2,67,59,55,50,44,42,73,59,44,30.07,29.97,23,6,23,0.00
2013-3-3,63,56,52,47,45,43,81,66,50,30.16,29.99,19,5,19,0.00
2013-3-4,66,56,46,50,42,34,77,62,36,30.24,30.14,20,4,20,0.00
2013-3-5,74,65,54,60,54,45,85,70,58,30.20,30.11,11,2,11,0.00
2013-3-6,78,67,55,65,54,37,86,65,29,30.12,29.98,22,6,26,0.00
2013-3-7,70,59,48,53,45,39,78,61,39,30.20,30.09,19,4,21,0.00
2013-3-8,73,65,56,57,54,48,88,68,45,30.22,30.12,14,3,15,0.00
2013-3-9,74,66,57,61,56,51,84,68,59,30.21,30.12,16,4,18,0.00
2013-3-10,75,71,68,64,58,55,75,64,55,30.18,30.08,13,5,18,0.00
2013-3-11,77,73,70,65,63,60,77,71,63,30.11,29.97,22,4,22,0.00
2013-3-12,79,75,72,71,67,63,83,78,69,30.03,29.93,19,5,21,0.00
2013-3-13,74,68,59,67,58,51,87,73,56,30.14,29.99,19,5,20,0.00
2013-3-14,71,63,56,54,48,37,81,60,29,30.22,30.10,23,6,23,0.00
2013-3-15,72,64,57,56,51,33,79,62,28,30.27,30.17,16,4,16,0.00
2013-3-16,74,67,59,58,55,53,83,67,51,30.21,30.11,11,2,12,0.00
2013-3-17,76,70,61,64,60,56,85,70,57,30.16,30.04,16,2,16,0.00
2013-3-18,78,74,70,70,67,62,86,78,72,30.09,29.99,18,3,18,0.08
2013-3-19,78,73,68,70,65,60,84,75,66,30.04,29.86,21,2,21,0.04
2013-3-20,81,73,66,70,64,58,81,74,62,30.00,29.82,25,3,25,0.00
2013-3-21,74,68,64,62,58,52,85,70,50,29.96,29.85,15,4,15,0.00
2013-3-22,76,71,62,68,64,57,85,77,65,30.02,29.92,13,2,14,0.07
2013-3-23,82,78,74,74,69,63,83,75,68,30.00,29.85,15,4,16,0.00
2013-3-24,88,80,76,75,70,63,79,70,57,29.91,29.72,28,6,28,0.00
2013-3-25,80,76,68,73,62,40,83,64,32,30.01,29.76,16,4,16,0.00
2013-3-26,68,63,54,47,40,29,63,43,26,30.23,30.00,20,7,20,0.00
2013-3-27,69,58,48,51,44,36,73,59,49,30.27,30.18,16,5,16,0.00
2013-3-28,71,64,55,51,47,40,70,56,42,30.28,30.18,17,4,17,0.00
2013-3-29,74,67,60,57,52,41,67,58,43,30.30,30.22,19,4,19,0.00
2013-3-30,75,70,66,58,55,50,68,59,45,30.28,30.18,14,3,14,0.00
2013-3-31,79,74,69,68,64,58,81,72,63,30.22,30.07,19,3,19,0.00